createdAt,value
2022-12-24T00:00:17.926Z,66.93
2022-12-24T00:02:20.433Z,66.95
2022-12-24T00:04:22.489Z,66.85
2022-12-24T00:06:24.622Z,66.83
2022-12-24T00:08:27.016Z,67.03
2022-12-24T00:10:29.309Z,66.86
2022-12-24T00:12:31.424Z,66.63
2022-12-24T00:14:33.645Z,66.71
2022-12-24T00:16:35.875Z,66.69
2022-12-24T00:18:45.226Z,66.74
2022-12-24T00:20:48.921Z,66.58
2022-12-24T00:22:51.043Z,66.47
2022-12-24T00:24:53.231Z,66.38
2022-12-24T00:26:55.470Z,66.71
2022-12-24T00:28:57.689Z,66.58
2022-12-24T00:30:59.862Z,66.80
2022-12-24T00:33:01.979Z,66.45
2022-12-24T00:35:04.420Z,66.50
2022-12-24T00:37:08.608Z,66.45
2022-12-24T00:39:10.629Z,66.77
2022-12-24T00:41:26.632Z,66.83
2022-12-24T00:43:30.028Z,67.12
2022-12-24T00:45:32.246Z,66.50
2022-12-24T00:47:34.413Z,66.35
2022-12-24T00:49:36.894Z,66.11
2022-12-24T00:51:41.797Z,66.48
2022-12-24T00:53:43.854Z,66.60
2022-12-24T00:55:46.251Z,66.47
2022-12-24T00:57:48.416Z,66.22
2022-12-24T00:59:50.356Z,66.36
2022-12-24T01:01:52.717Z,66.36
2022-12-24T01:04:16.318Z,66.15
2022-12-24T01:06:20.795Z,66.47
2022-12-24T01:08:22.965Z,66.06
2022-12-24T01:10:28.042Z,66.20
2022-12-24T01:12:31.191Z,66.57
2022-12-24T01:14:33.421Z,66.14
2022-12-24T01:16:35.720Z,66.20
2022-12-24T01:18:37.881Z,66.57
2022-12-24T01:20:40.027Z,66.22
2022-12-24T01:22:42.203Z,66.04
2022-12-24T01:24:44.849Z,65.94
2022-12-24T01:26:47.401Z,65.86
2022-12-24T01:28:49.572Z,65.76
2022-12-24T01:30:51.774Z,65.78
2022-12-24T01:32:53.828Z,65.86
2022-12-24T01:34:55.918Z,66.09
2022-12-24T01:36:58.200Z,65.85
2022-12-24T01:39:00.365Z,66.06
2022-12-24T01:41:21.039Z,66.23
2022-12-24T01:43:25.013Z,66.23
2022-12-24T01:45:44.798Z,66.33
2022-12-24T01:47:48.099Z,66.03
2022-12-24T01:49:56.381Z,66.27
2022-12-24T01:52:07.589Z,66.14
2022-12-24T01:54:33.044Z,66.72
2022-12-24T01:56:37.672Z,66.34
2022-12-24T01:58:42.319Z,66.22
2022-12-24T02:00:44.659Z,66.55
2022-12-24T02:02:50.293Z,66.70
2022-12-24T02:05:02.068Z,66.50
2022-12-24T02:07:04.746Z,66.62
2022-12-24T02:09:07.528Z,66.38
2022-12-24T02:11:21.359Z,66.73
2022-12-24T02:13:27.673Z,66.67
2022-12-24T02:15:42.078Z,66.62
2022-12-24T02:18:14.911Z,66.85
2022-12-24T02:20:35.883Z,66.64
2022-12-24T02:22:56.157Z,66.44
2022-12-24T02:25:16.567Z,66.74
2022-12-24T02:27:32.754Z,66.77
2022-12-24T02:30:01.856Z,66.95
2022-12-24T02:32:15.063Z,66.41
2022-12-24T02:34:34.370Z,66.58
2022-12-24T02:37:12.922Z,66.96
2022-12-24T02:39:23.557Z,66.62
2022-12-24T02:42:01.914Z,67.12
2022-12-24T02:44:04.617Z,67.02
2022-12-24T02:46:12.747Z,66.85
2022-12-24T02:48:21.415Z,67.07
2022-12-24T02:50:24.850Z,67.47
2022-12-24T02:52:39.511Z,67.12
2022-12-24T02:54:45.622Z,67.05
2022-12-24T02:57:12.522Z,67.36
2022-12-24T02:59:26.636Z,67.35
2022-12-24T03:01:47.006Z,67.31
2022-12-24T03:03:54.934Z,67.39
2022-12-24T03:06:27.901Z,67.81
2022-12-24T03:08:53.729Z,67.60
2022-12-24T03:11:09.692Z,67.81
2022-12-24T03:13:16.503Z,67.75
2022-12-24T03:15:23.225Z,68.03
2022-12-24T03:17:26.169Z,68.09
2022-12-24T03:19:29.085Z,68.42
2022-12-24T03:21:38.417Z,68.40
2022-12-24T03:23:41.122Z,68.23
2022-12-24T03:25:45.587Z,68.52
2022-12-24T03:27:48.437Z,68.60
2022-12-24T03:29:50.667Z,68.51
2022-12-24T03:31:59.266Z,68.51
2022-12-24T03:34:01.680Z,68.31
2022-12-24T03:36:04.942Z,68.68
2022-12-24T03:38:07.368Z,68.57
2022-12-24T03:40:09.964Z,68.59
2022-12-24T03:42:12.187Z,68.79
2022-12-24T03:44:14.245Z,68.76
2022-12-24T03:46:16.400Z,69.27
2022-12-24T03:48:18.740Z,68.76
2022-12-24T03:50:20.992Z,68.93
2022-12-24T03:52:23.035Z,68.83
2022-12-24T03:54:25.431Z,68.71
2022-12-24T03:56:27.386Z,68.40
2022-12-24T03:58:29.365Z,68.84
2022-12-24T04:00:32.043Z,68.70
2022-12-24T04:02:34.306Z,68.78
2022-12-24T04:04:38.061Z,68.89
2022-12-24T04:06:43.564Z,68.74
2022-12-24T04:08:45.789Z,68.50
2022-12-24T04:10:48.154Z,69.12
2022-12-24T04:12:50.293Z,68.63
2022-12-24T04:14:54.710Z,68.53
2022-12-24T04:16:56.919Z,68.87
2022-12-24T04:18:59.433Z,68.80
2022-12-24T04:21:01.656Z,69.04
2022-12-24T04:23:04.061Z,69.19
2022-12-24T04:25:07.003Z,69.02
2022-12-24T04:27:09.418Z,69.14
2022-12-24T04:29:11.316Z,69.13
2022-12-24T04:31:15.977Z,68.76
2022-12-24T04:33:18.195Z,68.66
2022-12-24T04:35:20.274Z,68.92
2022-12-24T04:37:22.253Z,68.62
2022-12-24T04:39:24.601Z,69.27
2022-12-24T04:41:26.623Z,68.98
2022-12-24T04:43:29.530Z,68.72
2022-12-24T04:45:31.985Z,68.67
2022-12-24T04:47:34.085Z,68.87
2022-12-24T04:49:36.022Z,69.13
2022-12-24T04:51:38.189Z,69.03
2022-12-24T04:53:41.007Z,68.94
2022-12-24T04:55:46.444Z,69.26
2022-12-24T04:57:52.887Z,69.15
2022-12-24T04:59:55.588Z,69.36
2022-12-24T05:01:57.919Z,69.28
2022-12-24T05:04:00.272Z,69.07
2022-12-24T05:06:08.122Z,69.29
2022-12-24T05:08:10.305Z,69.38
2022-12-24T05:10:14.666Z,69.36
2022-12-24T05:12:16.785Z,69.61
2022-12-24T05:14:19.108Z,69.85
2022-12-24T05:16:23.731Z,69.46
2022-12-24T05:18:26.286Z,69.38
2022-12-24T05:20:28.586Z,69.78
2022-12-24T05:22:49.314Z,69.69
2022-12-24T05:25:09.868Z,69.34
2022-12-24T05:27:12.050Z,70.13
2022-12-24T05:29:14.311Z,70.48
2022-12-24T05:31:16.836Z,70.17
2022-12-24T05:33:19.246Z,70.02
2022-12-24T05:35:21.136Z,70.19
2022-12-24T05:37:23.186Z,70.03
2022-12-24T05:39:25.307Z,70.14
2022-12-24T05:41:27.380Z,70.50
2022-12-24T05:43:29.846Z,69.75
2022-12-24T05:45:31.817Z,69.97
2022-12-24T05:47:38.153Z,69.80
2022-12-24T05:49:43.420Z,69.91
2022-12-24T05:51:45.357Z,69.82
2022-12-24T05:53:48.800Z,70.42
2022-12-24T05:55:51.139Z,69.95
2022-12-24T05:57:53.537Z,69.90
2022-12-24T05:59:55.528Z,70.09
2022-12-24T06:01:57.862Z,70.05
2022-12-24T06:04:01.116Z,70.01
2022-12-24T06:06:08.370Z,70.22
2022-12-24T06:08:10.553Z,69.49
2022-12-24T06:10:12.786Z,69.77
2022-12-24T06:12:14.863Z,69.77
2022-12-24T06:14:16.985Z,69.59
2022-12-24T06:16:21.170Z,69.71
2022-12-24T06:18:23.879Z,69.63
2022-12-24T06:20:25.972Z,69.69
2022-12-24T06:22:28.457Z,69.89
2022-12-24T06:24:30.980Z,69.57
2022-12-24T06:26:33.509Z,69.63
2022-12-24T06:28:40.102Z,69.67
2022-12-24T06:30:49.879Z,69.63
2022-12-24T06:32:51.993Z,69.74
2022-12-24T06:34:54.239Z,70.00
2022-12-24T06:36:56.391Z,69.69
2022-12-24T06:38:58.984Z,69.87
2022-12-24T06:41:06.683Z,69.97
2022-12-24T06:43:09.357Z,69.92
2022-12-24T06:45:11.651Z,69.84
2022-12-24T06:47:13.825Z,69.69
2022-12-24T06:49:16.253Z,69.67
2022-12-24T06:51:22.291Z,69.70
2022-12-24T06:53:24.388Z,69.89
2022-12-24T06:55:27.038Z,70.11
2022-12-24T06:57:29.797Z,70.23
2022-12-24T06:59:31.887Z,69.97
2022-12-24T07:01:34.304Z,69.67
2022-12-24T07:03:56.518Z,70.06
2022-12-24T07:05:59.116Z,69.79
2022-12-24T07:08:01.305Z,69.62
2022-12-24T07:10:03.510Z,69.67
2022-12-24T07:12:05.850Z,69.53
2022-12-24T07:14:07.975Z,69.92
2022-12-24T07:16:10.360Z,69.82
2022-12-24T07:18:13.069Z,70.00
2022-12-24T07:20:15.575Z,70.02
2022-12-24T07:22:17.769Z,70.01
2022-12-24T07:24:20.665Z,70.51
2022-12-24T07:26:22.768Z,70.31
2022-12-24T07:28:28.065Z,70.11
2022-12-24T07:30:31.943Z,70.00
2022-12-24T07:32:34.587Z,69.62
2022-12-24T07:34:40.031Z,69.14
2022-12-24T07:36:42.268Z,69.38
2022-12-24T07:38:44.503Z,69.43
2022-12-24T07:40:46.723Z,69.51
2022-12-24T07:42:48.941Z,69.46
2022-12-24T07:44:51.867Z,69.47
2022-12-24T07:46:54.027Z,69.70
2022-12-24T07:48:56.300Z,69.30
2022-12-24T07:50:59.215Z,69.77
2022-12-24T07:53:01.518Z,69.32
2022-12-24T07:55:03.998Z,69.28
2022-12-24T07:57:06.281Z,69.24
2022-12-24T07:59:08.410Z,69.09
2022-12-24T08:01:11.403Z,69.12
2022-12-24T08:03:21.580Z,68.77
2022-12-24T08:05:24.077Z,68.80
2022-12-24T08:07:27.107Z,68.84
2022-12-24T08:09:34.986Z,68.69
2022-12-24T08:11:37.078Z,69.02
2022-12-24T08:13:39.268Z,68.96
2022-12-24T08:15:41.613Z,68.99
2022-12-24T08:17:44.159Z,68.80
2022-12-24T08:19:46.335Z,69.16
2022-12-24T08:21:48.644Z,69.15
2022-12-24T08:23:51.072Z,69.24
2022-12-24T08:25:53.345Z,68.90
2022-12-24T08:27:55.405Z,68.99
2022-12-24T08:29:57.825Z,68.63
2022-12-24T08:32:00.656Z,68.92
2022-12-24T08:34:07.804Z,69.00
2022-12-24T08:36:10.467Z,69.30
2022-12-24T08:38:12.568Z,68.98
2022-12-24T08:40:14.845Z,69.04
2022-12-24T08:42:17.194Z,69.18
2022-12-24T08:44:19.481Z,69.09
2022-12-24T08:46:21.526Z,69.36
2022-12-24T08:48:23.683Z,69.23
2022-12-24T08:50:25.607Z,69.14
2022-12-24T08:52:30.871Z,69.43
2022-12-24T08:54:33.210Z,69.24
2022-12-24T08:56:35.482Z,69.35
2022-12-24T08:58:37.681Z,69.20
2022-12-24T09:00:43.112Z,68.92
2022-12-24T09:02:45.489Z,68.99
2022-12-24T09:04:47.766Z,69.47
2022-12-24T09:06:49.753Z,69.09
2022-12-24T09:08:51.841Z,69.09
2022-12-24T09:10:56.832Z,68.91
2022-12-24T09:12:59.017Z,68.81
2022-12-24T09:15:03.806Z,68.87
2022-12-24T09:17:06.685Z,68.90
2022-12-24T09:19:09.092Z,68.78
2022-12-24T09:21:17.805Z,69.22
2022-12-24T09:23:19.950Z,68.88
2022-12-24T09:25:22.109Z,69.23
2022-12-24T09:27:24.228Z,69.19
2022-12-24T09:29:26.335Z,69.28
2022-12-24T09:31:29.190Z,69.05
2022-12-24T09:33:34.819Z,68.66
2022-12-24T09:35:39.747Z,68.97
2022-12-24T09:37:42.021Z,68.95
2022-12-24T09:39:44.232Z,68.95
2022-12-24T09:42:25.038Z,68.77
2022-12-24T09:44:41.464Z,69.07
2022-12-24T09:46:47.783Z,68.63
2022-12-24T09:48:55.087Z,68.64
2022-12-24T09:51:01.606Z,68.97
2022-12-24T09:53:12.698Z,68.78
2022-12-24T09:55:35.934Z,68.62
2022-12-24T09:57:41.239Z,68.67
2022-12-24T09:59:45.742Z,68.72
2022-12-24T10:01:51.292Z,68.85
2022-12-24T10:03:56.170Z,68.61
2022-12-24T10:06:07.749Z,68.38
2022-12-24T10:08:24.459Z,68.70
2022-12-24T10:10:43.791Z,68.69
2022-12-24T10:12:55.179Z,68.81
2022-12-24T10:15:10.027Z,68.55
2022-12-24T10:17:39.188Z,68.59
2022-12-24T10:20:15.059Z,68.45
2022-12-24T10:22:31.338Z,68.52
2022-12-24T10:24:50.087Z,68.40
2022-12-24T10:27:10.001Z,68.46
2022-12-24T10:37:06.661Z,68.89
2022-12-24T10:39:19.566Z,69.31
2022-12-24T10:41:22.396Z,69.14
2022-12-24T10:43:27.002Z,68.53
2022-12-24T10:45:40.035Z,68.71
2022-12-24T10:47:44.545Z,68.60
2022-12-24T10:49:57.770Z,68.58
2022-12-24T10:52:11.346Z,68.42
2022-12-24T10:54:27.016Z,68.65
2022-12-24T10:56:29.921Z,68.60
2022-12-24T10:58:32.989Z,68.98
2022-12-24T11:00:36.932Z,69.44
2022-12-24T11:07:29.390Z,69.36
2022-12-24T11:09:37.460Z,69.19
2022-12-24T11:11:39.810Z,69.11
2022-12-24T11:13:46.322Z,68.72
2022-12-24T11:15:52.916Z,68.92
2022-12-24T11:17:59.658Z,69.20
2022-12-24T11:20:04.254Z,69.23
2022-12-24T11:22:17.861Z,69.75
2022-12-24T11:24:28.151Z,69.32
2022-12-24T11:26:30.997Z,69.49
2022-12-24T11:28:33.753Z,69.22
2022-12-24T11:30:38.050Z,69.04
2022-12-24T11:32:40.185Z,69.42
2022-12-24T11:34:44.887Z,69.13
2022-12-24T11:36:46.957Z,68.86
2022-12-24T11:38:59.302Z,68.63
2022-12-24T11:41:11.901Z,68.23
2022-12-24T11:43:23.143Z,68.03
2022-12-24T11:45:28.117Z,68.24
2022-12-24T11:47:48.729Z,68.05
2022-12-24T11:49:50.902Z,67.86
2022-12-24T11:52:11.855Z,67.75
2022-12-24T11:54:23.846Z,67.89
2022-12-24T11:57:03.299Z,67.85
2022-12-24T11:59:21.257Z,67.84
2022-12-24T12:01:55.109Z,67.67
2022-12-24T12:04:21.497Z,67.27
2022-12-24T12:06:41.927Z,67.79
2022-12-24T12:08:45.460Z,67.97
2022-12-24T12:10:49.840Z,67.92
2022-12-24T12:13:03.207Z,67.54
2022-12-24T12:15:12.092Z,67.77
2022-12-24T12:17:34.779Z,67.23
2022-12-24T12:20:11.327Z,67.15
2022-12-24T12:22:57.320Z,67.52
2022-12-24T12:25:05.856Z,68.02
2022-12-24T12:27:28.860Z,68.08
2022-12-24T12:29:37.525Z,67.93
2022-12-24T12:31:45.396Z,67.95
2022-12-24T12:33:54.295Z,67.38
2022-12-24T12:36:00.662Z,67.72
2022-12-24T12:38:06.670Z,67.64
2022-12-24T12:40:16.804Z,67.74
2022-12-24T12:42:35.274Z,67.67
2022-12-24T12:45:12.001Z,67.77
2022-12-24T12:47:29.261Z,67.74
2022-12-24T12:50:00.586Z,68.31
2022-12-24T12:52:10.147Z,68.12
2022-12-24T12:54:25.473Z,68.00
2022-12-24T12:56:36.814Z,68.16
2022-12-24T12:58:50.320Z,68.19
2022-12-24T13:00:59.266Z,68.10
2022-12-24T13:03:29.681Z,67.68
2022-12-24T13:05:49.912Z,67.75
2022-12-24T13:08:16.186Z,67.36
2022-12-24T13:10:52.799Z,67.21
2022-12-24T13:13:25.379Z,66.74
2022-12-24T13:15:27.385Z,66.84
2022-12-24T13:17:47.539Z,67.02
2022-12-24T13:20:04.685Z,67.02
2022-12-24T13:22:16.521Z,67.10
2022-12-24T13:24:20.152Z,67.08
2022-12-24T13:26:22.315Z,67.24
2022-12-24T13:28:24.347Z,67.24
2022-12-24T13:30:36.706Z,67.13
2022-12-24T13:32:53.099Z,67.16
2022-12-24T13:35:03.239Z,66.84
2022-12-24T13:37:20.140Z,67.23
2022-12-24T13:39:22.445Z,66.86
2022-12-24T13:41:40.073Z,66.78
2022-12-24T13:44:05.130Z,66.70
2022-12-24T13:46:07.963Z,66.75
2022-12-24T13:48:09.940Z,66.86
2022-12-24T13:50:24.777Z,66.71
2022-12-24T13:52:30.908Z,66.76
2022-12-24T13:54:33.433Z,66.88
2022-12-24T13:56:37.387Z,66.73
2022-12-24T13:58:44.433Z,66.67
2022-12-24T14:01:00.457Z,66.58
2022-12-24T14:03:14.507Z,66.44
2022-12-24T14:05:43.809Z,66.55
2022-12-24T14:07:50.665Z,66.29
2022-12-24T14:09:53.141Z,66.79
2022-12-24T14:12:04.487Z,66.25
2022-12-24T14:14:06.482Z,66.35
2022-12-24T14:16:17.696Z,66.58
2022-12-24T14:18:23.239Z,66.14
2022-12-24T14:20:25.735Z,66.24
2022-12-24T14:22:36.945Z,65.58
2022-12-24T14:24:43.983Z,65.73
2022-12-24T14:26:58.945Z,66.20
2022-12-24T14:29:16.476Z,66.00
2022-12-24T14:31:21.029Z,65.84
2022-12-24T14:33:35.416Z,65.69
2022-12-24T14:35:39.032Z,65.77
2022-12-24T14:37:45.794Z,66.07
2022-12-24T14:39:49.670Z,65.83
2022-12-24T14:42:03.357Z,65.35
2022-12-24T14:44:14.406Z,65.46
2022-12-24T14:46:34.673Z,65.27
2022-12-24T14:49:02.474Z,65.48
2022-12-24T14:51:21.850Z,66.08
2022-12-24T14:53:28.703Z,66.06
2022-12-24T14:55:35.378Z,66.37
2022-12-24T14:57:37.495Z,66.40
2022-12-24T15:00:00.427Z,65.89
2022-12-24T15:02:37.002Z,66.05
2022-12-24T15:04:39.323Z,65.51
2022-12-24T15:06:49.610Z,65.44
2022-12-24T15:08:54.051Z,65.41
2022-12-24T15:11:01.275Z,65.89
2022-12-24T15:13:15.803Z,65.51
2022-12-24T15:15:19.180Z,65.69
2022-12-24T15:17:21.484Z,66.09
2022-12-24T15:19:36.549Z,65.53
2022-12-24T15:21:44.288Z,65.64
2022-12-24T15:23:49.584Z,65.69
2022-12-24T15:25:52.078Z,66.01
2022-12-24T15:27:54.583Z,65.91
2022-12-24T15:29:58.449Z,65.62
2022-12-24T15:32:02.376Z,65.83
2022-12-24T15:34:04.542Z,66.21
2022-12-24T15:36:08.551Z,66.37
2022-12-24T15:38:23.792Z,66.83
2022-12-24T15:40:26.573Z,66.90
2022-12-24T15:42:29.058Z,66.69
2022-12-24T15:52:31.216Z,66.13
2022-12-24T15:54:34.078Z,66.75
2022-12-24T15:56:40.294Z,66.26
2022-12-24T15:58:44.862Z,66.14
2022-12-24T16:01:25.276Z,66.14
2022-12-24T16:03:27.417Z,66.00
2022-12-24T16:05:36.317Z,65.58
2022-12-24T16:07:58.514Z,65.55
2022-12-24T16:10:15.025Z,65.72
2022-12-24T16:12:26.431Z,65.23
2022-12-24T16:14:29.929Z,65.14
2022-12-24T16:16:44.301Z,65.37
2022-12-24T16:18:55.139Z,65.80
2022-12-24T16:20:57.564Z,65.12
2022-12-24T16:22:59.758Z,65.34
2022-12-24T16:25:24.193Z,65.13
2022-12-24T16:27:26.684Z,65.55
2022-12-24T16:29:29.236Z,65.11
2022-12-24T16:31:34.504Z,65.29
2022-12-24T16:33:36.846Z,65.59
2022-12-24T16:35:39.048Z,65.14
2022-12-24T16:37:41.277Z,65.07
2022-12-24T16:39:44.478Z,65.21
2022-12-24T16:42:05.482Z,65.22
2022-12-24T16:44:07.581Z,64.91
2022-12-24T16:46:13.971Z,65.11
2022-12-24T16:48:25.993Z,64.61
2022-12-24T16:50:28.548Z,64.74
2022-12-24T16:52:33.972Z,64.99
2022-12-24T16:54:36.042Z,65.01
2022-12-24T16:56:38.635Z,64.78
2022-12-24T16:58:41.165Z,64.86
2022-12-24T17:00:44.782Z,64.63
2022-12-24T17:02:48.221Z,64.72
2022-12-24T17:04:51.009Z,65.18
2022-12-24T17:06:54.977Z,65.31
2022-12-24T17:08:56.918Z,65.93
2022-12-24T17:10:59.154Z,65.92
2022-12-24T17:13:01.490Z,65.68
2022-12-24T17:15:04.334Z,65.57
2022-12-24T17:17:09.267Z,65.63
2022-12-24T17:19:11.452Z,65.82
2022-12-24T17:21:14.198Z,66.08
2022-12-24T17:23:16.617Z,66.00
2022-12-24T17:25:18.908Z,66.03
2022-12-24T17:27:20.995Z,65.96
2022-12-24T17:29:23.088Z,66.34
2022-12-24T17:31:25.635Z,66.03
2022-12-24T17:33:27.633Z,66.31
2022-12-24T17:35:29.738Z,66.41
2022-12-24T17:37:31.798Z,66.51
2022-12-24T17:39:34.346Z,66.32
2022-12-24T17:41:36.382Z,66.19
2022-12-24T17:43:39.235Z,65.95
2022-12-24T17:45:42.464Z,66.47
2022-12-24T17:47:45.084Z,66.29
2022-12-24T17:49:47.133Z,65.90
2022-12-24T17:51:49.423Z,65.90
2022-12-24T17:53:51.833Z,65.26
2022-12-24T17:55:53.902Z,65.43
2022-12-24T17:57:56.718Z,65.63
2022-12-24T17:59:58.817Z,65.49
2022-12-24T18:02:01.125Z,65.34
2022-12-24T18:04:04.275Z,65.47
2022-12-24T18:06:09.340Z,65.05
2022-12-24T18:08:11.467Z,64.93
2022-12-24T18:10:13.622Z,65.18
2022-12-24T18:12:15.650Z,65.22
2022-12-24T18:14:17.704Z,65.11
2022-12-24T18:16:31.581Z,64.99
2022-12-24T18:18:33.727Z,65.18
2022-12-24T18:20:42.697Z,64.90
2022-12-24T18:22:49.179Z,64.99
2022-12-24T18:24:51.390Z,65.27
2022-12-24T18:26:53.752Z,65.10
2022-12-24T18:28:57.590Z,64.80
2022-12-24T18:31:05.775Z,64.29
2022-12-24T18:33:11.291Z,64.60
2022-12-24T18:35:14.002Z,64.59
2022-12-24T18:37:16.164Z,64.45
2022-12-24T18:39:18.225Z,64.71
2022-12-24T18:41:26.404Z,64.70
2022-12-24T18:43:28.545Z,64.83
2022-12-24T18:45:30.882Z,64.64
2022-12-24T18:47:33.030Z,64.45
2022-12-24T18:49:37.648Z,64.30
2022-12-24T18:51:39.822Z,64.53
2022-12-24T18:53:41.856Z,64.63
2022-12-24T18:55:43.822Z,64.21
2022-12-24T18:57:45.846Z,64.35
2022-12-24T18:59:47.866Z,64.59
2022-12-24T19:01:50.004Z,64.41
2022-12-24T19:03:52.285Z,64.68
2022-12-24T19:05:54.548Z,64.70
2022-12-24T19:07:57.336Z,65.10
2022-12-24T19:09:59.470Z,65.04
2022-12-24T19:12:01.613Z,64.99
2022-12-24T19:14:05.716Z,64.83
2022-12-24T19:16:08.229Z,64.77
2022-12-24T19:18:10.895Z,64.92
2022-12-24T19:20:13.186Z,64.73
2022-12-24T19:22:15.500Z,64.98
2022-12-24T19:24:17.563Z,64.98
2022-12-24T19:26:20.824Z,65.08
2022-12-24T19:28:25.971Z,65.22
2022-12-24T19:30:28.370Z,64.98
2022-12-24T19:32:31.587Z,65.10
2022-12-24T19:34:33.779Z,65.40
2022-12-24T19:36:36.105Z,65.42
2022-12-24T19:38:38.510Z,65.35
2022-12-24T19:40:41.049Z,65.10
2022-12-24T19:42:43.195Z,65.28
2022-12-24T19:44:45.704Z,65.06
2022-12-24T19:46:47.761Z,65.11
2022-12-24T19:48:52.292Z,65.02
2022-12-24T19:51:01.441Z,64.72
2022-12-24T19:53:03.473Z,64.73
2022-12-24T19:55:06.448Z,65.07
2022-12-24T19:57:08.722Z,65.10
2022-12-24T19:59:11.051Z,65.13
2022-12-24T20:01:18.804Z,65.25
2022-12-24T20:03:21.812Z,65.25
2022-12-24T20:05:23.838Z,65.29
2022-12-24T20:07:26.596Z,65.48
2022-12-24T20:09:29.064Z,65.15
2022-12-24T20:11:32.252Z,66.03
2022-12-24T20:13:35.778Z,65.60
2022-12-24T20:15:40.021Z,65.49
2022-12-24T20:17:42.010Z,65.69
2022-12-24T20:19:44.181Z,65.51
2022-12-24T20:21:46.542Z,65.64
2022-12-24T20:23:49.122Z,65.99
2022-12-24T20:25:58.056Z,65.90
2022-12-24T20:28:00.166Z,65.91
2022-12-24T20:30:02.261Z,65.85
2022-12-24T20:32:04.748Z,66.10
2022-12-24T20:34:08.698Z,66.29
2022-12-24T20:36:11.893Z,66.11
2022-12-24T20:38:17.201Z,66.39
2022-12-24T20:40:19.528Z,66.40
2022-12-24T20:42:21.659Z,66.40
2022-12-24T20:44:23.819Z,66.58
2022-12-24T20:46:27.413Z,66.80
2022-12-24T20:48:32.199Z,67.22
2022-12-24T20:50:34.547Z,66.92
2022-12-24T20:52:36.696Z,66.84
2022-12-24T20:54:47.945Z,67.04
2022-12-24T20:56:57.972Z,67.06
2022-12-24T21:03:02.177Z,66.68
2022-12-24T21:05:05.122Z,67.03
2022-12-24T21:07:07.368Z,66.85
2022-12-24T21:09:10.825Z,66.74
2022-12-24T21:11:31.849Z,67.01
2022-12-24T21:13:33.821Z,66.74
2022-12-24T21:15:42.384Z,67.10
2022-12-24T21:17:44.841Z,66.92
2022-12-24T21:19:47.268Z,67.06
2022-12-24T21:21:49.541Z,66.80
2022-12-24T21:23:53.001Z,67.00
2022-12-24T21:26:03.015Z,66.89
2022-12-24T21:28:05.283Z,66.94
2022-12-24T21:30:09.046Z,67.08
2022-12-24T21:32:11.172Z,67.12
2022-12-24T21:34:13.422Z,66.83
2022-12-24T21:36:16.346Z,66.88
2022-12-24T21:38:18.519Z,66.81
2022-12-24T21:40:20.564Z,66.66
2022-12-24T21:42:22.596Z,66.89
2022-12-24T21:44:24.629Z,66.88
2022-12-24T21:46:27.325Z,66.90
2022-12-24T21:48:48.473Z,67.04
2022-12-24T21:50:57.778Z,67.06
2022-12-24T21:53:18.414Z,67.11
2022-12-24T21:55:20.525Z,66.96
2022-12-24T21:57:41.192Z,67.02
2022-12-24T21:59:43.435Z,66.93
2022-12-24T22:01:45.666Z,67.12
2022-12-24T22:03:49.612Z,66.97
2022-12-24T22:05:51.702Z,66.90
2022-12-24T22:08:13.138Z,67.22
2022-12-24T22:10:33.617Z,66.78
2022-12-24T22:12:36.469Z,66.86
2022-12-24T22:14:38.780Z,66.46
2022-12-24T22:16:41.184Z,66.73
2022-12-24T22:18:43.388Z,66.61
2022-12-24T22:20:46.842Z,66.81
2022-12-24T22:22:49.296Z,66.81
2022-12-24T22:24:51.465Z,66.75
2022-12-24T22:26:53.897Z,66.70
2022-12-24T22:28:56.717Z,66.60
2022-12-24T22:30:58.798Z,66.64
2022-12-24T22:33:01.236Z,66.83
2022-12-24T22:35:06.479Z,66.68
2022-12-24T22:37:08.604Z,66.65
2022-12-24T22:39:10.937Z,66.62
2022-12-24T22:41:16.823Z,67.01
2022-12-24T22:43:18.878Z,66.89
2022-12-24T22:45:22.686Z,67.05
2022-12-24T22:47:25.287Z,66.97
2022-12-24T22:49:27.593Z,66.88
2022-12-24T22:51:30.069Z,67.03
2022-12-24T22:53:32.064Z,66.93
2022-12-24T22:55:41.978Z,66.64
2022-12-24T22:57:44.248Z,67.21
2022-12-24T22:59:47.279Z,66.88
2022-12-24T23:01:49.840Z,66.97
2022-12-24T23:03:52.203Z,66.92
2022-12-24T23:06:19.517Z,67.42
2022-12-24T23:08:21.734Z,67.54
2022-12-24T23:10:23.877Z,67.96
2022-12-24T23:12:44.806Z,67.67
2022-12-24T23:14:59.284Z,67.44
2022-12-24T23:17:01.809Z,67.69
2022-12-24T23:19:06.443Z,67.31
2022-12-24T23:21:09.243Z,67.26
2022-12-24T23:23:11.635Z,67.31
2022-12-24T23:25:13.940Z,67.45
2022-12-24T23:27:16.184Z,67.35
2022-12-24T23:29:18.435Z,67.26
2022-12-24T23:31:22.561Z,67.42
2022-12-24T23:33:25.412Z,67.29
2022-12-24T23:35:27.992Z,67.16
2022-12-24T23:37:35.060Z,67.14
2022-12-24T23:39:38.043Z,66.87
2022-12-24T23:41:40.342Z,66.87
2022-12-24T23:43:42.485Z,66.58
2022-12-24T23:45:52.045Z,66.51
2022-12-24T23:47:54.242Z,66.70
2022-12-24T23:49:56.683Z,66.67
2022-12-24T23:51:59.042Z,66.56
2022-12-24T23:54:02.543Z,66.15
2022-12-24T23:56:05.619Z,66.49
2022-12-24T23:58:08.575Z,66.24
